Terminal Aerodrome Forecast
Issued by NWS Cleveland, OH

Home | Current Version | Previous Version | Graphics & Text | Print | Product List | Glossary On
Versions: 1 2 3 4 5 6 7 8 9 10 11 12 13 14 15 16
000
FTUS41 KCLE 061720
TAFYNG
TAF
KYNG 061720Z 0618/0718 12010KT 6SM -RA BR OVC025
     FM062000 12010G18KT 3SM -RA BR OVC020
      TEMPO 0620/0624 2SM RA BR OVC006
     FM070300 24010KT P6SM OVC010
     FM071000 27010KT P6SM OVC025=

USA.gov is the U.S. government's official web portal to all federal, state and local government web resources and services.